sensor_id;sensor_type;location;lat;lon;timestamp;pressure;altitude;pressure_sealevel;temperature;humidity
24280;BME280;12395;42.808;23.408;2023-12-07T00:02:06;94551.78;;;5.83;100.00
24280;BME280;12395;42.808;23.408;2023-12-07T00:04:31;94533.31;;;5.76;100.00
24280;BME280;12395;42.808;23.408;2023-12-07T00:06:57;94541.78;;;5.72;100.00
24280;BME280;12395;42.808;23.408;2023-12-07T00:09:22;94548.41;;;5.68;100.00
24280;BME280;12395;42.808;23.408;2023-12-07T00:11:47;94548.75;;;5.65;100.00
24280;BME280;12395;42.808;23.408;2023-12-07T00:14:13;94558.09;;;5.67;100.00
24280;BME280;12395;42.808;23.408;2023-12-07T00:16:38;94556.72;;;5.71;100.00
24280;BME280;12395;42.808;23.408;2023-12-07T00:19:04;94557.47;;;5.65;100.00
24280;BME280;12395;42.808;23.408;2023-12-07T00:21:29;94553.31;;;5.56;100.00
24280;BME280;12395;42.808;23.408;2023-12-07T00:23:54;94552.06;;;5.52;100.00
24280;BME280;12395;42.808;23.408;2023-12-07T00:26:20;94543.88;;;5.40;100.00
24280;BME280;12395;42.808;23.408;2023-12-07T00:28:46;94521.75;;;5.35;100.00
24280;BME280;12395;42.808;23.408;2023-12-07T00:31:11;94544.28;;;5.44;100.00
24280;BME280;12395;42.808;23.408;2023-12-07T00:33:36;94552.44;;;5.49;100.00
24280;BME280;12395;42.808;23.408;2023-12-07T00:36:02;94547.63;;;5.53;100.00
24280;BME280;12395;42.808;23.408;2023-12-07T00:38:28;94548.06;;;5.56;100.00
24280;BME280;12395;42.808;23.408;2023-12-07T00:40:54;94556.97;;;5.55;100.00
24280;BME280;12395;42.808;23.408;2023-12-07T00:43:19;94548.19;;;5.48;100.00
24280;BME280;12395;42.808;23.408;2023-12-07T00:45:44;94552.81;;;5.46;100.00
24280;BME280;12395;42.808;23.408;2023-12-07T00:48:13;94549.63;;;5.51;100.00
24280;BME280;12395;42.808;23.408;2023-12-07T00:50:38;94550.88;;;5.55;100.00
24280;BME280;12395;42.808;23.408;2023-12-07T00:53:04;94552.69;;;5.54;100.00
24280;BME280;12395;42.808;23.408;2023-12-07T00:55:29;94560.47;;;5.62;100.00
24280;BME280;12395;42.808;23.408;2023-12-07T00:57:54;94529.22;;;5.53;100.00
24280;BME280;12395;42.808;23.408;2023-12-07T01:00:20;94544.44;;;5.57;100.00
24280;BME280;12395;42.808;23.408;2023-12-07T01:02:45;94538.16;;;5.58;100.00
24280;BME280;12395;42.808;23.408;2023-12-07T01:05:11;94548.13;;;5.63;100.00
24280;BME280;12395;42.808;23.408;2023-12-07T01:07:36;94557.34;;;5.73;100.00
24280;BME280;12395;42.808;23.408;2023-12-07T01:10:02;94548.81;;;5.71;100.00
24280;BME280;12395;42.808;23.408;2023-12-07T01:12:27;94548.03;;;5.71;100.00
24280;BME280;12395;42.808;23.408;2023-12-07T01:14:52;94531.56;;;5.62;100.00
24280;BME280;12395;42.808;23.408;2023-12-07T01:17:18;94543.69;;;5.63;100.00
24280;BME280;12395;42.808;23.408;2023-12-07T01:19:44;94533.00;;;5.65;100.00
24280;BME280;12395;42.808;23.408;2023-12-07T01:22:10;94528.13;;;5.62;100.00
24280;BME280;12395;42.808;23.408;2023-12-07T01:24:35;94532.56;;;5.61;100.00
24280;BME280;12395;42.808;23.408;2023-12-07T01:27:00;94538.25;;;5.65;100.00
24280;BME280;12395;42.808;23.408;2023-12-07T01:29:26;94549.38;;;5.67;100.00
24280;BME280;12395;42.808;23.408;2023-12-07T01:31:51;94528.69;;;5.57;100.00
24280;BME280;12395;42.808;23.408;2023-12-07T01:34:17;94542.16;;;5.69;100.00
24280;BME280;12395;42.808;23.408;2023-12-07T01:36:43;94528.75;;;5.64;100.00
24280;BME280;12395;42.808;23.408;2023-12-07T01:39:09;94536.22;;;5.60;100.00
24280;BME280;12395;42.808;23.408;2023-12-07T01:41:38;94535.13;;;5.55;100.00
24280;BME280;12395;42.808;23.408;2023-12-07T01:44:04;94537.53;;;5.56;100.00
24280;BME280;12395;42.808;23.408;2023-12-07T01:46:29;94535.75;;;5.57;100.00
24280;BME280;12395;42.808;23.408;2023-12-07T01:48:55;94540.00;;;5.58;100.00
24280;BME280;12395;42.808;23.408;2023-12-07T01:51:21;94536.38;;;5.59;100.00
24280;BME280;12395;42.808;23.408;2023-12-07T01:53:47;94518.47;;;5.47;100.00
24280;BME280;12395;42.808;23.408;2023-12-07T01:56:13;94536.38;;;5.59;100.00
24280;BME280;12395;42.808;23.408;2023-12-07T01:58:39;94522.91;;;5.47;100.00
24280;BME280;12395;42.808;23.408;2023-12-07T02:01:05;94527.91;;;5.42;100.00
24280;BME280;12395;42.808;23.408;2023-12-07T02:03:31;94515.50;;;5.36;100.00
24280;BME280;12395;42.808;23.408;2023-12-07T02:05:58;94534.59;;;5.44;100.00
24280;BME280;12395;42.808;23.408;2023-12-07T02:08:24;94528.09;;;5.40;100.00
24280;BME280;12395;42.808;23.408;2023-12-07T02:10:49;94526.53;;;5.46;100.00
24280;BME280;12395;42.808;23.408;2023-12-07T02:13:15;94532.22;;;5.49;100.00
24280;BME280;12395;42.808;23.408;2023-12-07T02:15:40;94523.19;;;5.37;100.00
24280;BME280;12395;42.808;23.408;2023-12-07T02:18:22;94517.50;;;5.34;100.00
24280;BME280;12395;42.808;23.408;2023-12-07T02:23:32;94529.16;;;5.46;100.00
24280;BME280;12395;42.808;23.408;2023-12-07T02:29:16;94523.88;;;5.25;100.00
24280;BME280;12395;42.808;23.408;2023-12-07T02:31:41;94512.09;;;5.21;100.00
24280;BME280;12395;42.808;23.408;2023-12-07T02:34:07;94517.16;;;5.22;100.00
24280;BME280;12395;42.808;23.408;2023-12-07T02:36:34;94522.88;;;5.26;100.00
24280;BME280;12395;42.808;23.408;2023-12-07T02:39:01;94516.00;;;5.25;100.00
24280;BME280;12395;42.808;23.408;2023-12-07T02:41:33;94512.47;;;5.18;100.00
24280;BME280;12395;42.808;23.408;2023-12-07T02:43:59;94515.56;;;5.21;100.00
24280;BME280;12395;42.808;23.408;2023-12-07T02:46:25;94520.19;;;5.19;100.00
24280;BME280;12395;42.808;23.408;2023-12-07T02:48:51;94504.63;;;5.03;100.00
24280;BME280;12395;42.808;23.408;2023-12-07T02:51:16;94533.38;;;5.11;100.00
24280;BME280;12395;42.808;23.408;2023-12-07T02:53:42;94514.75;;;5.06;100.00
24280;BME280;12395;42.808;23.408;2023-12-07T02:56:07;94527.44;;;5.17;100.00
24280;BME280;12395;42.808;23.408;2023-12-07T02:58:33;94510.78;;;5.10;100.00
24280;BME280;12395;42.808;23.408;2023-12-07T03:00:58;94516.84;;;5.11;100.00
24280;BME280;12395;42.808;23.408;2023-12-07T03:03:24;94510.34;;;5.07;100.00
24280;BME280;12395;42.808;23.408;2023-12-07T03:05:49;94523.00;;;5.03;100.00
24280;BME280;12395;42.808;23.408;2023-12-07T03:08:15;94518.28;;;4.99;100.00
24280;BME280;12395;42.808;23.408;2023-12-07T03:10:40;94513.41;;;4.96;100.00
24280;BME280;12395;42.808;23.408;2023-12-07T03:13:06;94517.03;;;4.95;100.00
24280;BME280;12395;42.808;23.408;2023-12-07T03:15:31;94510.50;;;4.91;100.00
24280;BME280;12395;42.808;23.408;2023-12-07T03:17:56;94523.28;;;4.94;100.00
24280;BME280;12395;42.808;23.408;2023-12-07T03:20:22;94519.75;;;4.87;100.00
24280;BME280;12395;42.808;23.408;2023-12-07T03:22:47;94529.81;;;4.83;100.00
24280;BME280;12395;42.808;23.408;2023-12-07T03:25:13;94521.31;;;4.81;100.00
24280;BME280;12395;42.808;23.408;2023-12-07T03:27:38;94516.66;;;4.68;100.00
24280;BME280;12395;42.808;23.408;2023-12-07T03:30:04;94516.84;;;4.67;100.00
24280;BME280;12395;42.808;23.408;2023-12-07T03:32:29;94529.44;;;4.72;100.00
24280;BME280;12395;42.808;23.408;2023-12-07T03:34:55;94539.41;;;4.76;100.00
24280;BME280;12395;42.808;23.408;2023-12-07T03:37:20;94540.22;;;4.77;100.00
24280;BME280;12395;42.808;23.408;2023-12-07T03:39:45;94536.78;;;4.61;100.00
24280;BME280;12395;42.808;23.408;2023-12-07T03:42:11;94518.13;;;4.56;100.00
24280;BME280;12395;42.808;23.408;2023-12-07T03:44:36;94527.06;;;4.62;100.00
24280;BME280;12395;42.808;23.408;2023-12-07T03:47:01;94524.38;;;4.55;100.00
24280;BME280;12395;42.808;23.408;2023-12-07T03:49:27;94532.78;;;4.51;100.00
24280;BME280;12395;42.808;23.408;2023-12-07T03:51:52;94532.59;;;4.52;100.00
24280;BME280;12395;42.808;23.408;2023-12-07T03:54:18;94513.78;;;4.49;100.00
24280;BME280;12395;42.808;23.408;2023-12-07T03:56:44;94532.31;;;4.62;100.00
24280;BME280;12395;42.808;23.408;2023-12-07T03:59:09;94537.56;;;4.62;100.00
24280;BME280;12395;42.808;23.408;2023-12-07T04:01:34;94528.63;;;4.56;100.00
24280;BME280;12395;42.808;23.408;2023-12-07T04:04:00;94537.13;;;4.58;100.00
24280;BME280;12395;42.808;23.408;2023-12-07T04:06:26;94535.13;;;4.60;100.00
24280;BME280;12395;42.808;23.408;2023-12-07T04:08:52;94536.81;;;4.53;100.00
24280;BME280;12395;42.808;23.408;2023-12-07T04:11:18;94534.13;;;4.47;100.00
24280;BME280;12395;42.808;23.408;2023-12-07T04:13:44;94528.81;;;4.55;100.00
24280;BME280;12395;42.808;23.408;2023-12-07T04:16:10;94533.75;;;4.64;100.00
24280;BME280;12395;42.808;23.408;2023-12-07T04:18:36;94530.34;;;4.64;100.00
24280;BME280;12395;42.808;23.408;2023-12-07T04:21:02;94537.50;;;4.55;100.00
24280;BME280;12395;42.808;23.408;2023-12-07T04:23:28;94529.34;;;4.50;100.00
24280;BME280;12395;42.808;23.408;2023-12-07T04:25:53;94547.31;;;4.53;100.00
24280;BME280;12395;42.808;23.408;2023-12-07T04:28:18;94538.09;;;4.43;100.00
24280;BME280;12395;42.808;23.408;2023-12-07T04:30:44;94546.78;;;4.43;100.00
24280;BME280;12395;42.808;23.408;2023-12-07T04:33:09;94549.59;;;4.56;100.00
24280;BME280;12395;42.808;23.408;2023-12-07T04:35:35;94551.88;;;4.59;100.00
24280;BME280;12395;42.808;23.408;2023-12-07T04:38:00;94552.03;;;4.58;100.00
24280;BME280;12395;42.808;23.408;2023-12-07T04:40:26;94550.31;;;4.50;100.00
24280;BME280;12395;42.808;23.408;2023-12-07T04:42:51;94548.97;;;4.54;100.00
24280;BME280;12395;42.808;23.408;2023-12-07T04:45:17;94556.50;;;4.57;100.00
24280;BME280;12395;42.808;23.408;2023-12-07T04:47:42;94550.53;;;4.63;100.00
24280;BME280;12395;42.808;23.408;2023-12-07T04:50:08;94547.72;;;4.65;100.00
24280;BME280;12395;42.808;23.408;2023-12-07T04:52:35;94553.69;;;4.74;100.00
24280;BME280;12395;42.808;23.408;2023-12-07T04:55:00;94563.00;;;4.76;100.00
24280;BME280;12395;42.808;23.408;2023-12-07T04:57:26;94565.53;;;4.69;100.00
24280;BME280;12395;42.808;23.408;2023-12-07T04:59:51;94566.34;;;4.70;100.00
24280;BME280;12395;42.808;23.408;2023-12-07T05:02:17;94565.00;;;4.59;100.00
24280;BME280;12395;42.808;23.408;2023-12-07T05:04:43;94576.03;;;4.69;100.00
24280;BME280;12395;42.808;23.408;2023-12-07T05:07:11;94563.84;;;4.77;100.00
24280;BME280;12395;42.808;23.408;2023-12-07T05:09:36;94551.06;;;4.74;100.00
24280;BME280;12395;42.808;23.408;2023-12-07T05:12:02;94569.00;;;4.85;100.00
24280;BME280;12395;42.808;23.408;2023-12-07T05:14:27;94561.75;;;4.87;100.00
24280;BME280;12395;42.808;23.408;2023-12-07T05:16:52;94569.63;;;4.87;100.00
24280;BME280;12395;42.808;23.408;2023-12-07T05:19:20;94564.66;;;4.92;100.00
24280;BME280;12395;42.808;23.408;2023-12-07T05:21:46;94567.97;;;4.86;100.00
24280;BME280;12395;42.808;23.408;2023-12-07T05:24:12;94568.25;;;4.91;100.00
24280;BME280;12395;42.808;23.408;2023-12-07T05:26:37;94565.81;;;4.89;100.00
24280;BME280;12395;42.808;23.408;2023-12-07T05:29:03;94563.00;;;4.91;100.00
24280;BME280;12395;42.808;23.408;2023-12-07T05:31:28;94577.03;;;4.98;100.00
24280;BME280;12395;42.808;23.408;2023-12-07T05:33:54;94571.50;;;4.93;100.00
24280;BME280;12395;42.808;23.408;2023-12-07T05:36:20;94571.91;;;4.90;100.00
24280;BME280;12395;42.808;23.408;2023-12-07T05:38:45;94580.50;;;4.98;100.00
24280;BME280;12395;42.808;23.408;2023-12-07T05:41:10;94578.50;;;5.00;100.00
24280;BME280;12395;42.808;23.408;2023-12-07T05:43:40;94571.78;;;4.98;100.00
24280;BME280;12395;42.808;23.408;2023-12-07T05:46:06;94570.25;;;4.89;100.00
24280;BME280;12395;42.808;23.408;2023-12-07T05:48:31;94594.50;;;4.91;100.00
24280;BME280;12395;42.808;23.408;2023-12-07T05:50:57;94586.97;;;4.88;100.00
24280;BME280;12395;42.808;23.408;2023-12-07T05:53:22;94587.25;;;4.93;100.00
24280;BME280;12395;42.808;23.408;2023-12-07T05:55:48;94595.78;;;4.95;100.00
24280;BME280;12395;42.808;23.408;2023-12-07T05:58:13;94598.88;;;4.98;100.00
24280;BME280;12395;42.808;23.408;2023-12-07T06:00:39;94598.03;;;4.98;100.00
24280;BME280;12395;42.808;23.408;2023-12-07T06:03:05;94605.19;;;5.04;100.00
24280;BME280;12395;42.808;23.408;2023-12-07T06:05:30;94608.81;;;5.03;100.00
24280;BME280;12395;42.808;23.408;2023-12-07T06:07:56;94614.53;;;5.06;100.00
24280;BME280;12395;42.808;23.408;2023-12-07T06:10:21;94617.25;;;5.13;100.00
24280;BME280;12395;42.808;23.408;2023-12-07T06:12:47;94611.81;;;5.14;100.00
24280;BME280;12395;42.808;23.408;2023-12-07T06:15:12;94621.84;;;5.25;100.00
24280;BME280;12395;42.808;23.408;2023-12-07T06:17:37;94620.06;;;5.26;100.00
24280;BME280;12395;42.808;23.408;2023-12-07T06:20:03;94635.25;;;5.30;100.00
24280;BME280;12395;42.808;23.408;2023-12-07T06:22:28;94637.31;;;5.35;100.00
24280;BME280;12395;42.808;23.408;2023-12-07T06:24:54;94632.06;;;5.35;100.00
24280;BME280;12395;42.808;23.408;2023-12-07T06:27:20;94631.09;;;5.36;100.00
24280;BME280;12395;42.808;23.408;2023-12-07T06:29:45;94623.56;;;5.33;100.00
24280;BME280;12395;42.808;23.408;2023-12-07T06:32:10;94626.47;;;5.38;100.00
24280;BME280;12395;42.808;23.408;2023-12-07T06:34:42;94620.19;;;5.39;100.00
24280;BME280;12395;42.808;23.408;2023-12-07T06:37:08;94634.06;;;5.47;100.00
24280;BME280;12395;42.808;23.408;2023-12-07T06:39:35;94635.88;;;5.47;100.00
24280;BME280;12395;42.808;23.408;2023-12-07T06:42:01;94616.94;;;5.37;100.00
24280;BME280;12395;42.808;23.408;2023-12-07T06:44:26;94625.09;;;5.42;100.00
24280;BME280;12395;42.808;23.408;2023-12-07T06:46:51;94611.13;;;5.41;100.00
24280;BME280;12395;42.808;23.408;2023-12-07T06:49:17;94621.63;;;5.56;100.00
24280;BME280;12395;42.808;23.408;2023-12-07T06:51:42;94624.97;;;5.65;100.00
24280;BME280;12395;42.808;23.408;2023-12-07T06:54:07;94630.31;;;5.71;100.00
24280;BME280;12395;42.808;23.408;2023-12-07T06:56:33;94625.88;;;5.72;100.00
24280;BME280;12395;42.808;23.408;2023-12-07T06:58:58;94634.84;;;5.77;100.00
24280;BME280;12395;42.808;23.408;2023-12-07T07:01:24;94619.06;;;5.77;100.00
24280;BME280;12395;42.808;23.408;2023-12-07T07:03:49;94634.28;;;5.96;100.00
24280;BME280;12395;42.808;23.408;2023-12-07T07:06:14;94637.63;;;6.05;100.00
24280;BME280;12395;42.808;23.408;2023-12-07T07:08:40;94638.34;;;5.99;100.00
24280;BME280;12395;42.808;23.408;2023-12-07T07:11:13;94646.22;;;6.13;100.00
24280;BME280;12395;42.808;23.408;2023-12-07T07:13:41;94633.22;;;6.12;100.00
24280;BME280;12395;42.808;23.408;2023-12-07T07:16:10;94625.72;;;6.09;100.00
24280;BME280;12395;42.808;23.408;2023-12-07T07:18:38;94641.63;;;6.22;100.00
24280;BME280;12395;42.808;23.408;2023-12-07T07:21:03;94626.84;;;6.21;100.00
24280;BME280;12395;42.808;23.408;2023-12-07T07:23:29;94631.81;;;6.31;100.00
24280;BME280;12395;42.808;23.408;2023-12-07T07:25:55;94621.22;;;6.24;100.00
24280;BME280;12395;42.808;23.408;2023-12-07T07:28:20;94636.81;;;6.26;100.00
24280;BME280;12395;42.808;23.408;2023-12-07T07:30:45;94638.06;;;6.30;100.00
24280;BME280;12395;42.808;23.408;2023-12-07T07:33:11;94646.44;;;6.40;100.00
24280;BME280;12395;42.808;23.408;2023-12-07T07:35:36;94652.53;;;6.40;100.00
24280;BME280;12395;42.808;23.408;2023-12-07T07:38:01;94647.06;;;6.42;100.00
24280;BME280;12395;42.808;23.408;2023-12-07T07:40:27;94656.59;;;6.43;100.00
24280;BME280;12395;42.808;23.408;2023-12-07T07:42:52;94654.97;;;6.42;100.00
24280;BME280;12395;42.808;23.408;2023-12-07T07:45:18;94647.19;;;6.34;100.00
24280;BME280;12395;42.808;23.408;2023-12-07T07:47:44;94656.81;;;6.41;100.00
24280;BME280;12395;42.808;23.408;2023-12-07T07:50:09;94654.47;;;6.32;100.00
24280;BME280;12395;42.808;23.408;2023-12-07T07:52:35;94666.88;;;6.38;100.00
24280;BME280;12395;42.808;23.408;2023-12-07T07:55:05;94677.88;;;6.27;100.00
24280;BME280;12395;42.808;23.408;2023-12-07T07:57:30;94651.56;;;6.05;100.00
24280;BME280;12395;42.808;23.408;2023-12-07T07:59:57;94670.44;;;6.09;100.00
24280;BME280;12395;42.808;23.408;2023-12-07T08:02:22;94688.72;;;6.17;100.00
24280;BME280;12395;42.808;23.408;2023-12-07T08:04:48;94679.38;;;6.14;100.00
24280;BME280;12395;42.808;23.408;2023-12-07T08:07:14;94685.16;;;6.24;100.00
24280;BME280;12395;42.808;23.408;2023-12-07T08:09:40;94687.06;;;6.16;100.00
24280;BME280;12395;42.808;23.408;2023-12-07T08:12:06;94685.03;;;6.11;100.00
24280;BME280;12395;42.808;23.408;2023-12-07T08:14:34;94695.78;;;6.16;100.00
24280;BME280;12395;42.808;23.408;2023-12-07T08:17:00;94691.72;;;6.14;100.00
24280;BME280;12395;42.808;23.408;2023-12-07T08:19:25;94696.41;;;6.18;100.00
24280;BME280;12395;42.808;23.408;2023-12-07T08:21:51;94689.91;;;6.14;100.00
24280;BME280;12395;42.808;23.408;2023-12-07T08:24:16;94685.19;;;6.10;100.00
24280;BME280;12395;42.808;23.408;2023-12-07T08:26:41;94701.94;;;6.23;100.00
24280;BME280;12395;42.808;23.408;2023-12-07T08:29:07;94697.31;;;6.26;100.00
24280;BME280;12395;42.808;23.408;2023-12-07T08:31:32;94703.34;;;6.41;100.00
24280;BME280;12395;42.808;23.408;2023-12-07T08:33:57;94699.06;;;6.40;100.00
24280;BME280;12395;42.808;23.408;2023-12-07T08:36:23;94697.47;;;6.39;100.00
24280;BME280;12395;42.808;23.408;2023-12-07T08:38:51;94704.41;;;6.46;100.00
24280;BME280;12395;42.808;23.408;2023-12-07T08:41:16;94717.00;;;6.51;100.00
24280;BME280;12395;42.808;23.408;2023-12-07T08:43:41;94713.75;;;6.49;100.00
24280;BME280;12395;42.808;23.408;2023-12-07T08:46:07;94714.13;;;6.46;100.00
24280;BME280;12395;42.808;23.408;2023-12-07T08:48:33;94698.84;;;6.35;100.00
24280;BME280;12395;42.808;23.408;2023-12-07T08:50:59;94702.31;;;6.42;100.00
24280;BME280;12395;42.808;23.408;2023-12-07T08:53:25;94690.94;;;6.35;100.00
24280;BME280;12395;42.808;23.408;2023-12-07T08:55:51;94703.22;;;6.49;100.00
24280;BME280;12395;42.808;23.408;2023-12-07T08:58:17;94706.88;;;6.48;100.00
24280;BME280;12395;42.808;23.408;2023-12-07T09:00:42;94709.09;;;6.51;100.00
24280;BME280;12395;42.808;23.408;2023-12-07T09:03:08;94692.69;;;6.49;100.00
24280;BME280;12395;42.808;23.408;2023-12-07T09:05:34;94705.34;;;6.60;100.00
24280;BME280;12395;42.808;23.408;2023-12-07T09:07:59;94701.47;;;6.56;100.00
24280;BME280;12395;42.808;23.408;2023-12-07T09:10:25;94701.66;;;6.54;100.00
24280;BME280;12395;42.808;23.408;2023-12-07T09:12:50;94706.13;;;6.54;100.00
24280;BME280;12395;42.808;23.408;2023-12-07T09:15:15;94707.41;;;6.43;100.00
24280;BME280;12395;42.808;23.408;2023-12-07T09:17:41;94705.34;;;6.39;100.00
24280;BME280;12395;42.808;23.408;2023-12-07T09:20:11;94713.94;;;6.47;100.00
24280;BME280;12395;42.808;23.408;2023-12-07T09:22:44;94703.97;;;6.43;100.00
24280;BME280;12395;42.808;23.408;2023-12-07T09:25:10;94702.94;;;6.44;100.00
24280;BME280;12395;42.808;23.408;2023-12-07T09:27:37;94704.53;;;6.38;100.00
24280;BME280;12395;42.808;23.408;2023-12-07T09:30:06;94699.97;;;6.47;100.00
24280;BME280;12395;42.808;23.408;2023-12-07T09:32:39;94703.41;;;6.47;100.00
24280;BME280;12395;42.808;23.408;2023-12-07T09:35:06;94705.09;;;6.55;100.00
24280;BME280;12395;42.808;23.408;2023-12-07T09:37:44;94702.28;;;6.56;100.00
24280;BME280;12395;42.808;23.408;2023-12-07T09:40:15;94698.72;;;6.43;100.00
24280;BME280;12395;42.808;23.408;2023-12-07T09:42:42;94692.44;;;6.44;100.00
24280;BME280;12395;42.808;23.408;2023-12-07T09:45:08;94704.72;;;6.58;100.00
24280;BME280;12395;42.808;23.408;2023-12-07T09:47:34;94677.72;;;6.49;100.00
24280;BME280;12395;42.808;23.408;2023-12-07T09:50:02;94688.50;;;6.54;100.00
24280;BME280;12395;42.808;23.408;2023-12-07T09:52:28;94694.69;;;6.68;100.00
24280;BME280;12395;42.808;23.408;2023-12-07T09:54:54;94690.44;;;6.67;100.00
24280;BME280;12395;42.808;23.408;2023-12-07T09:57:20;94692.13;;;6.74;100.00
24280;BME280;12395;42.808;23.408;2023-12-07T09:59:46;94693.94;;;6.74;100.00
24280;BME280;12395;42.808;23.408;2023-12-07T10:02:13;94690.94;;;6.77;100.00
24280;BME280;12395;42.808;23.408;2023-12-07T10:04:38;94699.97;;;6.68;100.00
24280;BME280;12395;42.808;23.408;2023-12-07T10:07:04;94693.19;;;6.59;100.00
24280;BME280;12395;42.808;23.408;2023-12-07T10:09:34;94687.84;;;6.52;100.00
24280;BME280;12395;42.808;23.408;2023-12-07T10:12:04;94687.06;;;6.52;100.00
24280;BME280;12395;42.808;23.408;2023-12-07T10:14:29;94675.66;;;6.45;100.00
24280;BME280;12395;42.808;23.408;2023-12-07T10:16:55;94695.59;;;6.54;100.00
24280;BME280;12395;42.808;23.408;2023-12-07T10:19:22;94693.13;;;6.52;100.00
24280;BME280;12395;42.808;23.408;2023-12-07T10:21:48;94692.50;;;6.50;100.00
24280;BME280;12395;42.808;23.408;2023-12-07T10:24:17;94681.78;;;6.31;100.00
24280;BME280;12395;42.808;23.408;2023-12-07T10:26:43;94685.84;;;6.33;100.00
24280;BME280;12395;42.808;23.408;2023-12-07T10:29:09;94685.28;;;6.38;100.00
24280;BME280;12395;42.808;23.408;2023-12-07T10:31:36;94676.00;;;6.20;100.00
24280;BME280;12395;42.808;23.408;2023-12-07T10:34:02;94682.44;;;6.18;100.00
24280;BME280;12395;42.808;23.408;2023-12-07T10:36:29;94665.44;;;5.99;100.00
24280;BME280;12395;42.808;23.408;2023-12-07T10:38:54;94672.78;;;6.04;100.00
24280;BME280;12395;42.808;23.408;2023-12-07T10:41:21;94676.88;;;6.06;100.00
24280;BME280;12395;42.808;23.408;2023-12-07T10:43:51;94686.63;;;6.12;100.00
24280;BME280;12395;42.808;23.408;2023-12-07T10:46:19;94679.38;;;6.14;100.00
24280;BME280;12395;42.808;23.408;2023-12-07T10:48:45;94687.81;;;6.10;100.00
24280;BME280;12395;42.808;23.408;2023-12-07T10:51:17;94665.00;;;5.96;100.00
24280;BME280;12395;42.808;23.408;2023-12-07T10:53:48;94657.59;;;5.85;100.00
24280;BME280;12395;42.808;23.408;2023-12-07T10:56:23;94676.97;;;5.98;100.00
24280;BME280;12395;42.808;23.408;2023-12-07T10:58:52;94664.38;;;5.79;100.00
24280;BME280;12395;42.808;23.408;2023-12-07T11:01:21;94653.31;;;5.69;100.00
24280;BME280;12395;42.808;23.408;2023-12-07T11:03:49;94683.97;;;5.91;100.00
24280;BME280;12395;42.808;23.408;2023-12-07T11:06:16;94672.56;;;5.84;100.00
24280;BME280;12395;42.808;23.408;2023-12-07T11:08:46;94681.78;;;5.95;100.00
24280;BME280;12395;42.808;23.408;2023-12-07T11:11:33;94684.88;;;5.98;100.00
24280;BME280;12395;42.808;23.408;2023-12-07T11:14:06;94670.72;;;5.99;100.00
24280;BME280;12395;42.808;23.408;2023-12-07T11:16:36;94684.28;;;6.17;100.00
24280;BME280;12395;42.808;23.408;2023-12-07T11:19:03;94683.97;;;6.27;100.00
24280;BME280;12395;42.808;23.408;2023-12-07T11:21:30;94679.78;;;6.33;100.00
24280;BME280;12395;42.808;23.408;2023-12-07T11:23:55;94665.38;;;6.29;100.00
24280;BME280;12395;42.808;23.408;2023-12-07T11:26:24;94683.19;;;6.48;100.00
24280;BME280;12395;42.808;23.408;2023-12-07T11:28:50;94686.19;;;6.45;100.00
24280;BME280;12395;42.808;23.408;2023-12-07T11:31:16;94682.56;;;6.46;100.00
24280;BME280;12395;42.808;23.408;2023-12-07T11:33:42;94684.53;;;6.44;100.00
24280;BME280;12395;42.808;23.408;2023-12-07T11:36:09;94673.03;;;6.45;100.00
24280;BME280;12395;42.808;23.408;2023-12-07T11:38:38;94665.88;;;6.39;100.00
24280;BME280;12395;42.808;23.408;2023-12-07T11:41:23;94661.53;;;6.52;100.00
24280;BME280;12395;42.808;23.408;2023-12-07T11:43:50;94683.59;;;6.72;100.00
24280;BME280;12395;42.808;23.408;2023-12-07T11:46:18;94683.06;;;6.56;100.00
24280;BME280;12395;42.808;23.408;2023-12-07T11:48:47;94683.28;;;6.61;100.00
24280;BME280;12395;42.808;23.408;2023-12-07T11:51:14;94663.81;;;6.55;100.00
24280;BME280;12395;42.808;23.408;2023-12-07T11:53:40;94672.66;;;6.69;100.00
24280;BME280;12395;42.808;23.408;2023-12-07T11:56:07;94677.44;;;6.65;100.00
24280;BME280;12395;42.808;23.408;2023-12-07T11:58:34;94666.13;;;6.65;100.00
24280;BME280;12395;42.808;23.408;2023-12-07T12:01:01;94674.66;;;6.67;100.00
24280;BME280;12395;42.808;23.408;2023-12-07T12:03:27;94673.72;;;6.53;100.00
24280;BME280;12395;42.808;23.408;2023-12-07T12:05:53;94658.97;;;6.38;100.00
24280;BME280;12395;42.808;23.408;2023-12-07T12:08:22;94666.72;;;6.24;100.00
24280;BME280;12395;42.808;23.408;2023-12-07T12:10:49;94690.91;;;6.13;100.00
24280;BME280;12395;42.808;23.408;2023-12-07T12:13:16;94694.00;;;5.73;100.00
24280;BME280;12395;42.808;23.408;2023-12-07T12:15:42;94694.31;;;5.49;100.00
24280;BME280;12395;42.808;23.408;2023-12-07T12:18:08;94662.88;;;5.26;100.00
24280;BME280;12395;42.808;23.408;2023-12-07T12:20:34;94677.88;;;5.18;100.00
24280;BME280;12395;42.808;23.408;2023-12-07T12:23:00;94677.88;;;5.03;100.00
24280;BME280;12395;42.808;23.408;2023-12-07T12:25:27;94686.56;;;4.89;100.00
24280;BME280;12395;42.808;23.408;2023-12-07T12:27:56;94681.06;;;4.61;100.00
24280;BME280;12395;42.808;23.408;2023-12-07T12:30:23;94692.53;;;4.60;100.00
24280;BME280;12395;42.808;23.408;2023-12-07T12:32:50;94679.16;;;4.55;100.00
24280;BME280;12395;42.808;23.408;2023-12-07T12:35:16;94683.38;;;4.56;100.00
24280;BME280;12395;42.808;23.408;2023-12-07T12:37:43;94690.16;;;4.51;100.00
24280;BME280;12395;42.808;23.408;2023-12-07T12:40:10;94677.63;;;4.38;100.00
24280;BME280;12395;42.808;23.408;2023-12-07T12:42:36;94682.31;;;4.43;100.00
24280;BME280;12395;42.808;23.408;2023-12-07T12:45:07;94690.09;;;4.36;100.00
24280;BME280;12395;42.808;23.408;2023-12-07T12:47:33;94690.44;;;4.33;100.00
24280;BME280;12395;42.808;23.408;2023-12-07T12:50:00;94685.09;;;4.27;100.00
24280;BME280;12395;42.808;23.408;2023-12-07T12:52:25;94688.16;;;4.30;100.00